Huvudsida
METAR-TAF:

METAR-TAF

Flygplatser :

Sveg, Sverige

Härjedalen Sveg Airport

latitud: 62-02-52N, longitud: 014-25-22E, höjd: 359 m

Aktuellt väderrapport

Denna rapport gjordes för 36 minuter sedan, klockan 17:50 UTC
Vind 3 kt från väst/sydväst
Temperatur 9°C
Fuktighet 40%
Tryck 1012 hPa
Sikt 10 km eller mer

METAR: ESND 221750Z AUTO 24003KT 9999 SCT100/// 09/M04 Q1012

Tid: 20:26 (18:26 UTC)


TAF: saknas

Aktuella väderrapporter och prognoser från 4000 flygplatser (METAR- och TAF-rapporter).

De tillgängliga stationerna syns som gula och röda prickar på kartan.

För musen över prickarna för att se namnen på stationerna.

Klicka sedan för att få väderrapporter och prognoser.

För att ändra kartan: Klicka på de gröna knapparna med ett svart kors på för att zooma in; den gröna knappen med ett streck på för att zooma ut; eller på de gröna pilarna för angränsande kartor.


METAR-TAF: